Terri-ann — WBD3593 — position and weather

sailwx.info

Track history (hours):
 
Tides and Currents Weather Stations Pressure Air Temp Water Temp Dewpoint Dewpoint Depression Visibility Wind Speed Wind Dir Waves Ship Positions

Terri-ann

Owner: CALICO LOBSTER CO INC, SANDWICH, MA. More information available from US FCC via Universal Licensing System and Coast Guard Vessel Documentation Center.

Last reported at 2017-Jul-14 19:39 UTC. Time now 2017-Jul-21 20:30 UTC.
Position N 42°05' W 070°15'.

Length 21 m.

Type: Fishing. MMSI: 367149920.

Date/timePositionNaut miles runAvg speedWind from/ knotsBaromVisibWave heightAir tempDewpointWater temp
2017-Jul-14 19:39N 42°05' W 070°15'1 8.3
2017-Jul-14 19:30N 42°04' W 070°16'6 7.8
2017-Jul-14 18:46N 41°59' W 070°20'2 8.6
2017-Jul-14 18:29N 41°57' W 070°21'4 7.9
2017-Jul-14 17:59N 41°54' W 070°24'4 8.0
2017-Jul-14 17:30N 41°50' W 070°27'5 5.7
2017-Jul-14 16:39N 41°46' W 070°30'0 0.0
2017-Jul-14 16:12N 41°46' W 070°30'0 0.0
2017-Jul-14 15:59N 41°46' W 070°30'0 0.0
2017-Jul-14 15:26N 41°46' W 070°30'0 0.0
2017-Jul-14 14:59N 41°46' W 070°30'0 0.0
2017-Jul-14 14:30N 41°46' W 070°30'0 0.0
2017-Jul-14 14:00N 41°46' W 070°30'  
2017-Jul-07 00:16N 41°44' W 069°27'3 7.4
2017-Jul-06 23:50N 41°46' W 069°30'  
Track history (hours):
 
Tides and Currents Weather Stations Pressure Air Temp Water Temp Dewpoint Dewpoint Depression Visibility Wind Speed Wind Dir Waves Ship Positions

Terri-ann

Owner: CALICO LOBSTER CO INC, SANDWICH, MA. More information available from US FCC via Universal Licensing System and Coast Guard Vessel Documentation Center.

Last reported at 2017-Jul-14 19:39 UTC. Time now 2017-Jul-21 20:30 UTC.
Position N 42°05' W 070°15'.

Length 21 m.

Type: Fishing. MMSI: 367149920.

Date/timePositionNaut miles runAvg speedWind from/ knotsBaromVisibWave heightAir tempDewpointWater temp
2017-Jul-14 19:39N 42°05' W 070°15'1 8.3
2017-Jul-14 19:30N 42°04' W 070°16'6 7.8
2017-Jul-14 18:46N 41°59' W 070°20'2 8.6
2017-Jul-14 18:29N 41°57' W 070°21'4 7.9
2017-Jul-14 17:59N 41°54' W 070°24'4 8.0
2017-Jul-14 17:30N 41°50' W 070°27'5 5.7
2017-Jul-14 16:39N 41°46' W 070°30'0 0.0
2017-Jul-14 16:12N 41°46' W 070°30'0 0.0
2017-Jul-14 15:59N 41°46' W 070°30'0 0.0
2017-Jul-14 15:26N 41°46' W 070°30'0 0.0
2017-Jul-14 14:59N 41°46' W 070°30'0 0.0
2017-Jul-14 14:30N 41°46' W 070°30'0 0.0
2017-Jul-14 14:00N 41°46' W 070°30'  
2017-Jul-07 00:16N 41°44' W 069°27'3 7.4
2017-Jul-06 23:50N 41°46' W 069°30'  

Dump ship's entire track history